Time;durP1;ratioP1;P1;durP2;ratioP2;P2;SDS_P1;SDS_P2;PMS_P1;PMS_P2;Temp;Humidity;BMP_temperature;BMP_pressure;BME280_temperature;BME280_humidity;BME280_pressure;Samples;Min_cycle;Max_cycle;Signal;HPM_P1;HPM_P2
2021/12/28 00:00:01;;;;;;;41.85;21.77;;;;;;;;;;5011122;28;20034;-74
2021/12/28 00:02:38;;;;;;;54.63;24.52;;;;;;;;;;5002992;28;20461;-74
2021/12/28 00:05:04;;;;;;;40.25;20.70;;;;;;;;;;5010551;28;20565;-74
2021/12/28 00:07:29;;;;;;;43.42;22.58;;;;;;;;;;5011061;28;20505;-74
2021/12/28 00:09:55;;;;;;;65.95;27.48;;;;;;;;;;5010352;28;20064;-74
2021/12/28 00:12:20;;;;;;;59.95;26.55;;;;;;;;;;5009868;28;20072;-74
2021/12/28 00:15:01;;;;;;;61.45;27.10;;;;;;;;;;5010623;28;20061;-74
2021/12/28 00:20:11;;;;;;;56.00;25.05;;;;;;;;;;5010806;28;20502;-74
2021/12/28 00:22:36;;;;;;;54.42;24.83;;;;;;;;;;4976915;28;20053;-74
2021/12/28 00:25:04;;;;;;;55.83;26.98;;;;;;;;;;4991779;28;20406;-75
2021/12/28 00:27:29;;;;;;;72.10;28.60;;;;;;;;;;5010600;28;20402;-78
2021/12/28 00:29:55;;;;;;;75.35;30.13;;;;;;;;;;5010656;28;20041;-74
2021/12/28 00:32:21;;;;;;;85.93;29.98;;;;;;;;;;4992782;28;20042;-75
2021/12/28 00:34:46;;;;;;;58.03;26.50;;;;;;;;;;5009405;28;20124;-75
2021/12/28 00:37:12;;;;;;;61.63;26.23;;;;;;;;;;5010159;28;20030;-75
2021/12/28 00:39:37;;;;;;;54.60;25.83;;;;;;;;;;5010578;28;20124;-75
2021/12/28 00:42:03;;;;;;;49.58;24.05;;;;;;;;;;5010606;28;20041;-75
2021/12/28 00:44:28;;;;;;;43.20;23.70;;;;;;;;;;5010331;28;20038;-75
2021/12/28 00:46:54;;;;;;;41.60;22.70;;;;;;;;;;4991647;28;20116;-75
2021/12/28 00:49:19;;;;;;;39.13;20.85;;;;;;;;;;5010419;28;20038;-75
2021/12/28 00:51:45;;;;;;;35.03;20.15;;;;;;;;;;5010131;28;20042;-75
2021/12/28 00:54:10;;;;;;;40.40;22.92;;;;;;;;;;5010757;28;20053;-75
2021/12/28 00:56:36;;;;;;;36.85;21.25;;;;;;;;;;5009514;28;20041;-75
2021/12/28 00:59:01;;;;;;;37.17;19.95;;;;;;;;;;5010167;28;20041;-75
2021/12/28 01:01:27;;;;;;;33.80;20.02;;;;;;;;;;5010269;28;20038;-75
2021/12/28 01:03:52;;;;;;;32.10;18.30;;;;;;;;;;5010334;28;20026;-75
2021/12/28 01:06:18;;;;;;;32.22;18.00;;;;;;;;;;4992500;28;20077;-75
2021/12/28 01:08:43;;;;;;;28.58;18.13;;;;;;;;;;5004358;28;20026;-75
2021/12/28 01:11:09;;;;;;;24.60;16.15;;;;;;;;;;5010029;28;20037;-75
2021/12/28 01:13:34;;;;;;;30.00;16.80;;;;;;;;;;5010248;28;20046;-75
2021/12/28 01:15:59;;;;;;;28.00;16.05;;;;;;;;;;5009959;28;20494;-75
2021/12/28 01:18:25;;;;;;;24.65;15.40;;;;;;;;;;5009528;28;20096;-75
2021/12/28 01:20:51;;;;;;;26.35;15.90;;;;;;;;;;5010489;28;20030;-75
2021/12/28 01:23:18;;;;;;;23.08;15.45;;;;;;;;;;5014410;28;20053;-76
2021/12/28 01:25:44;;;;;;;26.38;16.58;;;;;;;;;;5013837;28;20438;-75
2021/12/28 01:28:10;;;;;;;23.83;15.27;;;;;;;;;;4996130;28;20509;-75
2021/12/28 01:30:35;;;;;;;25.45;15.30;;;;;;;;;;5012966;28;20045;-75
2021/12/28 01:33:02;;;;;;;28.58;17.10;;;;;;;;;;5013263;28;20042;-75
2021/12/28 01:35:29;;;;;;;26.65;16.38;;;;;;;;;;5013380;28;20033;-75
2021/12/28 01:37:55;;;;;;;32.30;17.67;;;;;;;;;;5013738;28;20029;-75
2021/12/28 01:40:24;;;;;;;28.10;16.35;;;;;;;;;;5012619;28;20045;-75
2021/12/28 01:43:14;;;;;;;26.52;16.45;;;;;;;;;;5013275;28;20037;-75
2021/12/28 01:45:49;;;;;;;32.60;18.48;;;;;;;;;;5013199;28;20029;-75
2021/12/28 01:48:18;;;;;;;30.13;17.25;;;;;;;;;;5013497;28;20065;-74
2021/12/28 01:50:45;;;;;;;30.38;17.38;;;;;;;;;;5013313;28;20026;-74
2021/12/28 01:53:11;;;;;;;36.72;18.45;;;;;;;;;;5011938;28;20042;-74
2021/12/28 01:55:40;;;;;;;37.53;20.23;;;;;;;;;;5013039;28;20034;-74
2021/12/28 01:58:06;;;;;;;32.38;17.58;;;;;;;;;;5013360;28;20030;-74
2021/12/28 02:00:31;;;;;;;47.30;23.52;;;;;;;;;;5012960;28;20034;-75
2021/12/28 02:02:57;;;;;;;52.17;25.23;;;;;;;;;;5012277;28;20526;-74
2021/12/28 02:05:23;;;;;;;49.30;22.98;;;;;;;;;;5013003;28;20036;-74
2021/12/28 02:07:48;;;;;;;49.60;23.45;;;;;;;;;;4995502;28;20034;-75
2021/12/28 02:10:14;;;;;;;38.45;19.48;;;;;;;;;;4995564;28;20498;-74
2021/12/28 02:12:40;;;;;;;37.80;19.30;;;;;;;;;;5012697;28;20160;-74
2021/12/28 02:15:12;;;;;;;30.90;17.33;;;;;;;;;;5011894;28;20065;-74
2021/12/28 02:17:38;;;;;;;33.33;17.92;;;;;;;;;;4997943;28;20107;-74
2021/12/28 02:20:10;;;;;;;33.65;18.42;;;;;;;;;;4993530;28;20469;-74
2021/12/28 02:22:36;;;;;;;27.83;16.40;;;;;;;;;;4993116;28;20035;-74
2021/12/28 02:25:01;;;;;;;32.03;16.77;;;;;;;;;;4999826;28;20179;-74
2021/12/28 02:27:29;;;;;;;39.50;20.38;;;;;;;;;;4994670;28;20468;-74
2021/12/28 02:29:54;;;;;;;36.10;18.45;;;;;;;;;;5012513;28;20475;-74
2021/12/28 02:32:23;;;;;;;36.95;18.40;;;;;;;;;;4985768;28;20036;-75
2021/12/28 02:34:49;;;;;;;31.42;17.45;;;;;;;;;;5011455;28;20044;-74
2021/12/28 02:37:14;;;;;;;33.97;19.70;;;;;;;;;;5011333;28;20037;-74
2021/12/28 02:39:39;;;;;;;35.50;18.83;;;;;;;;;;5012465;28;20049;-74
2021/12/28 02:42:05;;;;;;;32.03;17.35;;;;;;;;;;4994669;28;20038;-74
2021/12/28 02:44:31;;;;;;;30.08;17.30;;;;;;;;;;5012163;28;20041;-74
2021/12/28 02:46:56;;;;;;;26.38;15.07;;;;;;;;;;5011140;28;20069;-74
2021/12/28 02:49:22;;;;;;;30.02;16.65;;;;;;;;;;5012132;28;20064;-74
2021/12/28 02:51:47;;;;;;;27.63;17.35;;;;;;;;;;5012137;28;20033;-74
2021/12/28 02:54:12;;;;;;;28.38;16.25;;;;;;;;;;5012095;28;20068;-74
2021/12/28 02:56:38;;;;;;;25.40;14.45;;;;;;;;;;5011897;28;20029;-74
2021/12/28 02:59:03;;;;;;;24.55;14.30;;;;;;;;;;5011268;28;20409;-74
2021/12/28 03:01:29;;;;;;;27.08;14.80;;;;;;;;;;4994299;28;20034;-74
2021/12/28 03:04:05;;;;;;;26.67;15.27;;;;;;;;;;5010512;28;20505;-74
2021/12/28 03:06:32;;;;;;;37.95;19.15;;;;;;;;;;5009359;28;20417;-75
2021/12/28 03:08:59;;;;;;;33.53;17.25;;;;;;;;;;5010150;28;20078;-74
2021/12/28 03:11:26;;;;;;;33.95;17.08;;;;;;;;;;5009190;28;20775;-74
2021/12/28 03:13:55;;;;;;;28.30;16.02;;;;;;;;;;5009958;28;20514;-74
2021/12/28 03:16:22;;;;;;;27.55;14.32;;;;;;;;;;5011286;28;20037;-74
2021/12/28 03:18:48;;;;;;;26.40;15.95;;;;;;;;;;4994223;28;20124;-74
2021/12/28 03:21:16;;;;;;;30.35;16.42;;;;;;;;;;5011857;28;20030;-74
2021/12/28 03:23:42;;;;;;;27.90;15.73;;;;;;;;;;5011643;28;20215;-74
2021/12/28 03:26:09;;;;;;;26.10;14.18;;;;;;;;;;5010539;28;20467;-74
2021/12/28 03:28:39;;;;;;;37.80;18.30;;;;;;;;;;5011586;28;20034;-74
2021/12/28 03:31:05;;;;;;;30.33;15.85;;;;;;;;;;5011285;28;20080;-74
2021/12/28 03:33:34;;;;;;;34.33;16.27;;;;;;;;;;4993657;28;20038;-74
2021/12/28 03:36:00;;;;;;;39.25;19.55;;;;;;;;;;5005177;28;20042;-74
2021/12/28 03:38:25;;;;;;;30.27;17.45;;;;;;;;;;5011166;28;20116;-74
2021/12/28 03:40:53;;;;;;;28.77;16.38;;;;;;;;;;4993719;28;20042;-74
2021/12/28 03:43:20;;;;;;;26.08;15.27;;;;;;;;;;5010770;28;20536;-74
2021/12/28 03:45:46;;;;;;;26.73;14.30;;;;;;;;;;5010642;28;20105;-74
2021/12/28 03:48:11;;;;;;;28.55;15.00;;;;;;;;;;5005618;28;20164;-74
2021/12/28 03:50:37;;;;;;;27.67;14.75;;;;;;;;;;4977270;28;20050;-74
2021/12/28 03:53:04;;;;;;;22.92;14.40;;;;;;;;;;5011201;28;20045;-74
2021/12/28 03:55:30;;;;;;;27.10;14.20;;;;;;;;;;5010958;28;20081;-74
2021/12/28 03:57:58;;;;;;;23.40;13.90;;;;;;;;;;5010481;28;20502;-74
2021/12/28 04:00:24;;;;;;;25.60;13.27;;;;;;;;;;5010776;28;20050;-74
2021/12/28 04:02:50;;;;;;;27.02;14.88;;;;;;;;;;5010888;28;20041;-77
2021/12/28 04:05:16;;;;;;;27.27;14.25;;;;;;;;;;5011134;28;20034;-76
2021/12/28 04:07:43;;;;;;;26.10;14.02;;;;;;;;;;5011020;28;20402;-74
2021/12/28 04:10:11;;;;;;;23.35;13.57;;;;;;;;;;5010410;28;20491;-74
2021/12/28 04:12:37;;;;;;;26.63;14.15;;;;;;;;;;5010897;28;20494;-74
2021/12/28 04:15:04;;;;;;;20.55;12.73;;;;;;;;;;5011025;28;20053;-75
2021/12/28 04:17:31;;;;;;;20.15;12.70;;;;;;;;;;4991072;28;20045;-74
2021/12/28 04:19:57;;;;;;;18.67;12.50;;;;;;;;;;4997982;28;20053;-74
2021/12/28 04:22:23;;;;;;;21.58;12.27;;;;;;;;;;5010013;28;20040;-74
2021/12/28 04:24:48;;;;;;;22.23;13.50;;;;;;;;;;5010736;28;20046;-74
2021/12/28 04:27:14;;;;;;;19.77;11.43;;;;;;;;;;4992645;28;20034;-74
2021/12/28 04:29:39;;;;;;;19.77;11.73;;;;;;;;;;5011103;28;20502;-74
2021/12/28 04:32:05;;;;;;;18.55;11.77;;;;;;;;;;4986986;28;20647;-74
2021/12/28 04:34:31;;;;;;;19.33;11.98;;;;;;;;;;4992588;28;20070;-74
2021/12/28 04:36:56;;;;;;;21.60;11.82;;;;;;;;;;5010644;28;20041;-74
2021/12/28 04:39:22;;;;;;;17.30;10.70;;;;;;;;;;5010557;28;20124;-74
2021/12/28 04:41:47;;;;;;;20.23;11.55;;;;;;;;;;5006232;28;20037;-74
2021/12/28 04:44:14;;;;;;;15.75;10.05;;;;;;;;;;5000705;28;20036;-75
2021/12/28 04:46:39;;;;;;;17.10;10.70;;;;;;;;;;5010186;28;20034;-75
2021/12/28 04:49:05;;;;;;;21.15;11.43;;;;;;;;;;5010476;28;20042;-74
2021/12/28 04:51:31;;;;;;;19.75;10.45;;;;;;;;;;4992980;28;20037;-74
2021/12/28 04:53:59;;;;;;;17.25;10.55;;;;;;;;;;5011865;28;20025;-75
2021/12/28 04:56:24;;;;;;;17.70;11.32;;;;;;;;;;5014659;28;20065;-74
2021/12/28 04:58:50;;;;;;;16.95;10.85;;;;;;;;;;5014706;28;20168;-74
2021/12/28 05:01:15;;;;;;;17.17;11.05;;;;;;;;;;5014222;28;20038;-74
2021/12/28 05:03:41;;;;;;;21.33;12.68;;;;;;;;;;5013644;28;20069;-74
2021/12/28 05:06:06;;;;;;;20.88;11.60;;;;;;;;;;5013925;28;20060;-74
2021/12/28 05:08:32;;;;;;;20.83;12.23;;;;;;;;;;5014204;28;20029;-74
2021/12/28 05:10:58;;;;;;;19.27;11.23;;;;;;;;;;5013945;28;20121;-74
2021/12/28 05:13:24;;;;;;;16.65;10.27;;;;;;;;;;5014068;28;20117;-74
2021/12/28 05:15:50;;;;;;;14.00;9.05;;;;;;;;;;4995132;28;20109;-74
2021/12/28 05:18:16;;;;;;;14.15;8.15;;;;;;;;;;4996512;28;20387;-74
2021/12/28 05:20:43;;;;;;;14.48;9.18;;;;;;;;;;4996463;28;20044;-74
2021/12/28 05:23:10;;;;;;;11.43;7.57;;;;;;;;;;5013962;28;20108;-74
2021/12/28 05:25:35;;;;;;;11.00;7.95;;;;;;;;;;5013148;28;20482;-74
2021/12/28 05:28:01;;;;;;;12.05;8.02;;;;;;;;;;5005489;28;20126;-74
2021/12/28 05:30:27;;;;;;;11.15;7.65;;;;;;;;;;5013822;28;20264;-74
2021/12/28 05:32:53;;;;;;;10.25;7.60;;;;;;;;;;5013611;28;20045;-74
2021/12/28 05:35:19;;;;;;;11.75;8.63;;;;;;;;;;5014068;28;20038;-74
2021/12/28 05:37:44;;;;;;;10.25;7.30;;;;;;;;;;5012624;28;20445;-74
2021/12/28 05:40:12;;;;;;;11.63;8.20;;;;;;;;;;5013307;28;20542;-74
2021/12/28 05:42:37;;;;;;;10.45;6.70;;;;;;;;;;4995778;28;20478;-74
2021/12/28 05:45:04;;;;;;;9.20;7.10;;;;;;;;;;5013584;28;20041;-74
2021/12/28 05:47:30;;;;;;;11.75;8.10;;;;;;;;;;4996310;28;20503;-74
2021/12/28 05:49:55;;;;;;;9.23;6.55;;;;;;;;;;5013168;28;20625;-74
2021/12/28 05:52:21;;;;;;;11.77;7.15;;;;;;;;;;5013465;28;20038;-74
2021/12/28 05:54:46;;;;;;;11.18;6.90;;;;;;;;;;5013060;28;20053;-74
2021/12/28 05:57:12;;;;;;;9.65;7.25;;;;;;;;;;5013130;28;20044;-74
2021/12/28 05:59:37;;;;;;;9.95;6.75;;;;;;;;;;4999439;28;20514;-74
2021/12/28 06:02:04;;;;;;;12.68;7.28;;;;;;;;;;5009431;28;20045;-74
2021/12/28 06:04:30;;;;;;;9.75;7.43;;;;;;;;;;4991617;28;20046;-74
2021/12/28 06:06:55;;;;;;;10.18;7.15;;;;;;;;;;5004126;28;20045;-75
2021/12/28 06:09:20;;;;;;;8.55;7.20;;;;;;;;;;5010326;28;20044;-75
2021/12/28 06:11:46;;;;;;;11.98;7.00;;;;;;;;;;4992703;28;20855;-75
2021/12/28 06:14:11;;;;;;;12.23;7.85;;;;;;;;;;4993203;28;20037;-75
2021/12/28 06:16:37;;;;;;;10.50;7.13;;;;;;;;;;5006716;28;20041;-74
2021/12/28 06:19:04;;;;;;;10.15;7.68;;;;;;;;;;5012039;28;20109;-74
2021/12/28 06:21:31;;;;;;;8.60;6.38;;;;;;;;;;4992223;28;20026;-75
2021/12/28 06:23:59;;;;;;;8.85;6.72;;;;;;;;;;5009899;28;20092;-75
2021/12/28 06:26:28;;;;;;;10.88;7.57;;;;;;;;;;5010668;28;20054;-74
2021/12/28 06:28:54;;;;;;;9.95;7.25;;;;;;;;;;5010821;28;20399;-75
2021/12/28 06:31:19;;;;;;;11.32;7.22;;;;;;;;;;5010082;28;20030;-74
2021/12/28 06:33:45;;;;;;;10.90;7.82;;;;;;;;;;5010462;28;20038;-74
2021/12/28 06:36:11;;;;;;;11.07;7.60;;;;;;;;;;5011140;28;20088;-74
2021/12/28 06:38:36;;;;;;;10.27;7.25;;;;;;;;;;5012437;28;20041;-74
2021/12/28 06:41:02;;;;;;;12.30;8.15;;;;;;;;;;5012508;28;20120;-74
2021/12/28 06:43:27;;;;;;;9.15;6.32;;;;;;;;;;5011488;28;20121;-75
2021/12/28 06:45:55;;;;;;;7.75;6.20;;;;;;;;;;5012003;28;20026;-74
2021/12/28 06:48:21;;;;;;;7.82;5.68;;;;;;;;;;5012389;28;20033;-74
2021/12/28 06:50:47;;;;;;;8.80;6.30;;;;;;;;;;5012333;28;20064;-74
2021/12/28 06:53:12;;;;;;;13.30;8.13;;;;;;;;;;5011322;28;20474;-74
2021/12/28 06:55:37;;;;;;;14.32;8.57;;;;;;;;;;5012019;28;20022;-75
2021/12/28 06:58:05;;;;;;;12.75;9.23;;;;;;;;;;5011792;28;20474;-77
2021/12/28 07:00:31;;;;;;;14.05;9.15;;;;;;;;;;5012222;28;20037;-77
2021/12/28 07:02:56;;;;;;;14.13;9.35;;;;;;;;;;5005553;28;20029;-75
2021/12/28 07:05:21;;;;;;;14.32;9.55;;;;;;;;;;5007704;28;20092;-78
2021/12/28 07:07:47;;;;;;;13.50;9.70;;;;;;;;;;5009570;28;20037;-76
2021/12/28 07:10:13;;;;;;;10.50;8.13;;;;;;;;;;5009857;28;20108;-76
2021/12/28 07:12:38;;;;;;;9.40;6.13;;;;;;;;;;5008493;28;20044;-78
2021/12/28 07:15:05;;;;;;;7.78;6.50;;;;;;;;;;5006202;28;20074;-77
2021/12/28 07:17:31;;;;;;;8.93;6.45;;;;;;;;;;5009755;28;20025;-76
2021/12/28 07:19:57;;;;;;;10.77;6.78;;;;;;;;;;5011730;28;20030;-76
2021/12/28 07:22:22;;;;;;;11.02;7.03;;;;;;;;;;5009669;28;20038;-74
2021/12/28 07:24:48;;;;;;;11.70;7.75;;;;;;;;;;5010536;28;20037;-76
2021/12/28 07:27:14;;;;;;;10.57;7.05;;;;;;;;;;5010877;28;20384;-77
2021/12/28 07:29:39;;;;;;;9.82;7.05;;;;;;;;;;5013428;28;20026;-78
2021/12/28 07:32:08;;;;;;;6.95;5.78;;;;;;;;;;4994229;28;20153;-75
2021/12/28 07:34:34;;;;;;;10.90;6.20;;;;;;;;;;4992472;28;20042;-75
2021/12/28 07:36:59;;;;;;;10.73;7.63;;;;;;;;;;5009826;28;20030;-76
2021/12/28 07:39:25;;;;;;;14.20;9.00;;;;;;;;;;5009737;28;20168;-78
2021/12/28 07:41:50;;;;;;;11.60;7.43;;;;;;;;;;5010278;28;20061;-76
2021/12/28 07:44:16;;;;;;;14.85;7.72;;;;;;;;;;5009807;28;20034;-76
2021/12/28 07:46:41;;;;;;;9.77;7.25;;;;;;;;;;5009116;28;20486;-76
2021/12/28 07:49:07;;;;;;;13.48;8.95;;;;;;;;;;5009796;28;20247;-76
2021/12/28 07:51:32;;;;;;;12.18;9.07;;;;;;;;;;5009270;28;20117;-75
2021/12/28 07:53:58;;;;;;;13.63;8.60;;;;;;;;;;5009916;28;20105;-74
2021/12/28 07:56:23;;;;;;;17.45;10.48;;;;;;;;;;5009238;28;20041;-74
2021/12/28 07:58:49;;;;;;;12.77;8.68;;;;;;;;;;5009924;28;20044;-74
2021/12/28 08:01:14;;;;;;;17.45;12.10;;;;;;;;;;5008045;28;20029;-74
2021/12/28 08:03:40;;;;;;;13.88;10.07;;;;;;;;;;5008928;28;20670;-73
2021/12/28 08:06:06;;;;;;;15.60;9.88;;;;;;;;;;4999878;28;20061;-73
2021/12/28 08:08:31;;;;;;;13.00;8.50;;;;;;;;;;4981293;28;20513;-74
2021/12/28 08:10:57;;;;;;;7.50;6.18;;;;;;;;;;5008933;28;20033;-74
2021/12/28 08:13:22;;;;;;;8.40;5.18;;;;;;;;;;5008784;28;20076;-71
2021/12/28 08:15:48;;;;;;;6.93;5.68;;;;;;;;;;5009191;28;20046;-74
2021/12/28 08:18:14;;;;;;;7.50;5.60;;;;;;;;;;5008528;28;20037;-74
2021/12/28 08:20:39;;;;;;;7.07;5.78;;;;;;;;;;5009550;28;20121;-75
2021/12/28 08:23:06;;;;;;;9.23;5.13;;;;;;;;;;5002866;28;20033;-75
2021/12/28 08:25:31;;;;;;;8.20;5.75;;;;;;;;;;5009089;28;20498;-75
2021/12/28 08:27:58;;;;;;;7.55;5.38;;;;;;;;;;5008991;28;20088;-72
2021/12/28 08:30:23;;;;;;;6.75;5.18;;;;;;;;;;5008280;28;20049;-74
2021/12/28 08:32:49;;;;;;;7.20;4.97;;;;;;;;;;5008532;28;20034;-74
2021/12/28 08:35:15;;;;;;;7.07;5.53;;;;;;;;;;4990950;28;20113;-75
2021/12/28 08:37:42;;;;;;;6.22;5.07;;;;;;;;;;5008757;28;20042;-73
2021/12/28 08:40:09;;;;;;;6.95;5.07;;;;;;;;;;5008873;28;20038;-74
2021/12/28 08:42:35;;;;;;;7.90;5.70;;;;;;;;;;5008869;28;20050;-73
2021/12/28 08:45:00;;;;;;;5.38;4.38;;;;;;;;;;4990255;28;20073;-75
2021/12/28 08:47:27;;;;;;;7.28;4.93;;;;;;;;;;5007612;28;20505;-75
2021/12/28 08:49:56;;;;;;;5.68;4.90;;;;;;;;;;5008859;28;20025;-76
2021/12/28 08:52:22;;;;;;;6.13;4.28;;;;;;;;;;5008460;28;20058;-77
2021/12/28 08:54:48;;;;;;;6.90;5.32;;;;;;;;;;5008541;28;20088;-75
2021/12/28 08:57:13;;;;;;;9.43;5.22;;;;;;;;;;5000457;28;20034;-74
2021/12/28 08:59:39;;;;;;;6.63;5.28;;;;;;;;;;5009131;28;20046;-76
2021/12/28 09:02:07;;;;;;;7.15;5.45;;;;;;;;;;5008673;28;20030;-76
2021/12/28 09:04:33;;;;;;;7.10;5.63;;;;;;;;;;5008216;28;20042;-75
2021/12/28 09:06:58;;;;;;;6.32;4.78;;;;;;;;;;4989601;28;20037;-76
2021/12/28 09:09:24;;;;;;;6.55;4.82;;;;;;;;;;5008467;28;20033;-74
2021/12/28 09:11:50;;;;;;;6.32;5.47;;;;;;;;;;5008485;28;20037;-76
2021/12/28 09:14:15;;;;;;;6.20;5.13;;;;;;;;;;4990400;28;20100;-76
2021/12/28 09:16:41;;;;;;;6.38;5.47;;;;;;;;;;5006725;28;20038;-78
2021/12/28 09:19:06;;;;;;;5.15;4.32;;;;;;;;;;5008580;28;20483;-78
2021/12/28 09:21:32;;;;;;;7.90;5.13;;;;;;;;;;5008272;28;20518;-76
2021/12/28 09:23:57;;;;;;;7.47;5.72;;;;;;;;;;5009027;28;20100;-76
2021/12/28 09:26:23;;;;;;;6.25;4.88;;;;;;;;;;5007986;28;20038;-75
2021/12/28 09:28:49;;;;;;;8.70;5.30;;;;;;;;;;5007698;28;20117;-74
2021/12/28 09:31:14;;;;;;;7.80;5.55;;;;;;;;;;5008285;28;20541;-74
2021/12/28 09:33:40;;;;;;;15.77;6.30;;;;;;;;;;5008258;28;20037;-77
2021/12/28 09:36:09;;;;;;;11.60;8.43;;;;;;;;;;5006880;28;20447;-76
2021/12/28 09:38:35;;;;;;;9.07;7.20;;;;;;;;;;5006926;28;20030;-76
2021/12/28 09:41:01;;;;;;;7.22;5.43;;;;;;;;;;4990279;28;20519;-76
2021/12/28 09:43:27;;;;;;;7.28;5.90;;;;;;;;;;5010721;28;20117;-77
2021/12/28 09:45:52;;;;;;;8.75;6.30;;;;;;;;;;5011249;28;20522;-77
2021/12/28 09:48:18;;;;;;;7.82;6.00;;;;;;;;;;5011045;28;20049;-76
2021/12/28 09:50:43;;;;;;;9.90;6.28;;;;;;;;;;5011871;28;20160;-78
2021/12/28 09:53:11;;;;;;;8.65;5.90;;;;;;;;;;5014057;28;20072;-78
2021/12/28 09:55:37;;;;;;;11.27;6.63;;;;;;;;;;5015707;28;20030;-79
2021/12/28 09:58:03;;;;;;;7.28;5.80;;;;;;;;;;5015163;28;20398;-79
2021/12/28 10:00:29;;;;;;;8.93;5.47;;;;;;;;;;5013862;28;20434;-79
2021/12/28 10:02:55;;;;;;;9.52;6.70;;;;;;;;;;4996657;28;20029;-79
2021/12/28 10:05:23;;;;;;;6.88;5.00;;;;;;;;;;5014254;28;20041;-79
2021/12/28 10:07:54;;;;;;;16.95;5.15;;;;;;;;;;5013562;28;20093;-75
2021/12/28 10:10:21;;;;;;;6.45;4.28;;;;;;;;;;5012863;28;20048;-76
2021/12/28 10:12:51;;;;;;;9.20;4.28;;;;;;;;;;5012122;28;20529;-78
2021/12/28 10:15:20;;;;;;;5.70;4.22;;;;;;;;;;5005034;28;20034;-78
2021/12/28 10:17:49;;;;;;;5.75;4.57;;;;;;;;;;5012887;28;20033;-77
2021/12/28 10:20:25;;;;;;;5.75;4.32;;;;;;;;;;4994579;28;20069;-76
2021/12/28 10:22:58;;;;;;;9.15;4.97;;;;;;;;;;5010018;28;20124;-76
2021/12/28 10:25:27;;;;;;;6.40;4.60;;;;;;;;;;5013374;28;20056;-78
2021/12/28 10:28:00;;;;;;;6.80;4.72;;;;;;;;;;5012550;28;20096;-76
2021/12/28 10:30:27;;;;;;;7.03;4.60;;;;;;;;;;5012198;28;20069;-79
2021/12/28 10:32:55;;;;;;;8.65;5.22;;;;;;;;;;5009414;28;20046;-79
2021/12/28 10:35:25;;;;;;;5.65;4.53;;;;;;;;;;5008742;28;20069;-78
2021/12/28 10:38:11;;;;;;;9.25;7.80;;;;;;;;;;5005850;28;20045;-78
2021/12/28 10:40:39;;;;;;;10.07;6.13;;;;;;;;;;5002633;28;20654;-78
2021/12/28 10:43:08;;;;;;;8.45;6.88;;;;;;;;;;5001183;28;20475;-77
2021/12/28 10:45:41;;;;;;;9.48;6.38;;;;;;;;;;5003115;28;20054;-77
2021/12/28 10:48:38;;;;;;;10.07;5.53;;;;;;;;;;5012339;28;20093;-77
2021/12/28 10:51:12;;;;;;;7.88;5.57;;;;;;;;;;5012710;28;20784;-78
2021/12/28 10:54:07;;;;;;;9.30;5.72;;;;;;;;;;5011210;28;20046;-77
2021/12/28 10:56:40;;;;;;;8.60;5.47;;;;;;;;;;5010301;28;20025;-77
2021/12/28 10:59:09;;;;;;;9.40;6.07;;;;;;;;;;5010831;28;20114;-79
2021/12/28 11:01:38;;;;;;;7.38;6.22;;;;;;;;;;5010579;28;20026;-76
2021/12/28 11:04:09;;;;;;;11.85;6.60;;;;;;;;;;5012473;28;20034;-78
2021/12/28 11:06:37;;;;;;;14.40;5.38;;;;;;;;;;4992060;28;20065;-78
2021/12/28 11:09:09;;;;;;;9.18;6.40;;;;;;;;;;5010434;28;20041;-77
2021/12/28 11:11:35;;;;;;;13.95;7.35;;;;;;;;;;5010470;28;20044;-78
2021/12/28 11:14:04;;;;;;;7.45;5.72;;;;;;;;;;5010624;28;20050;-77
2021/12/28 11:16:30;;;;;;;7.72;5.82;;;;;;;;;;5008863;28;20045;-77
2021/12/28 11:19:00;;;;;;;8.75;5.95;;;;;;;;;;5009768;28;20030;-77
2021/12/28 11:21:29;;;;;;;5.18;4.43;;;;;;;;;;5010426;28;20064;-77
2021/12/28 11:24:01;;;;;;;8.45;4.70;;;;;;;;;;5010391;28;20564;-77
2021/12/28 11:26:50;;;;;;;12.25;7.68;;;;;;;;;;5010067;28;20068;-77
2021/12/28 11:29:15;;;;;;;10.27;6.00;;;;;;;;;;4991754;28;20037;-76
2021/12/28 11:31:46;;;;;;;9.25;6.47;;;;;;;;;;5009617;28;20368;-76
2021/12/28 11:34:21;;;;;;;10.32;6.18;;;;;;;;;;5009722;28;20056;-77
2021/12/28 11:36:54;;;;;;;6.20;5.20;;;;;;;;;;4992228;28;20042;-76
2021/12/28 11:39:27;;;;;;;9.18;5.30;;;;;;;;;;5029131;22;20033;-72
2021/12/28 11:41:53;;;;;;;8.30;4.82;;;;;;;;;;5009411;28;20040;-74
2021/12/28 11:44:21;;;;;;;7.10;4.50;;;;;;;;;;4986880;28;20108;-75
2021/12/28 11:46:47;;;;;;;6.57;4.93;;;;;;;;;;5003375;28;20041;-73
2021/12/28 11:49:15;;;;;;;7.55;4.80;;;;;;;;;;5007890;28;20053;-74
2021/12/28 11:51:42;;;;;;;9.38;5.68;;;;;;;;;;4994905;28;20034;-75
2021/12/28 11:54:10;;;;;;;7.70;5.53;;;;;;;;;;4955313;28;20035;-75
2021/12/28 11:56:39;;;;;;;7.15;4.70;;;;;;;;;;4963563;28;20124;-74
2021/12/28 11:59:16;;;;;;;10.20;5.55;;;;;;;;;;5009726;28;20112;-74
2021/12/28 12:01:48;;;;;;;12.35;7.32;;;;;;;;;;4995070;28;20667;-73
2021/12/28 12:04:25;;;;;;;13.55;7.72;;;;;;;;;;4958776;28;20034;-75
2021/12/28 12:07:05;;;;;;;7.32;5.30;;;;;;;;;;4970838;28;20045;-73
2021/12/28 12:09:33;;;;;;;9.35;6.15;;;;;;;;;;4976361;28;20044;-75
2021/12/28 12:12:15;;;;;;;9.65;5.88;;;;;;;;;;4993162;28;20050;-73
2021/12/28 12:14:50;;;;;;;7.55;4.93;;;;;;;;;;4971830;28;20030;-75
2021/12/28 12:17:27;;;;;;;9.07;5.30;;;;;;;;;;4975922;28;20518;-75
2021/12/28 12:20:00;;;;;;;8.13;5.60;;;;;;;;;;4966392;28;20101;-76
2021/12/28 12:22:52;;;;;;;6.43;4.80;;;;;;;;;;5011292;28;20062;-76
2021/12/28 12:25:48;;;;;;;5.68;4.30;;;;;;;;;;4989789;28;20034;-75
2021/12/28 12:28:15;;;;;;;10.38;4.22;;;;;;;;;;4973126;28;20052;-73
2021/12/28 12:30:48;;;;;;;3.70;3.30;;;;;;;;;;4989904;28;20495;-73
2021/12/28 12:33:16;;;;;;;9.82;4.47;;;;;;;;;;4973041;28;20479;-73
2021/12/28 12:35:50;;;;;;;5.45;4.60;;;;;;;;;;4957580;28;20040;-75
2021/12/28 12:38:16;;;;;;;7.20;4.88;;;;;;;;;;4972456;28;20049;-76
2021/12/28 12:41:08;;;;;;;6.13;4.50;;;;;;;;;;4972324;28;20134;-74
2021/12/28 12:43:53;;;;;;;6.15;3.78;;;;;;;;;;4928729;28;20046;-75
2021/12/28 12:46:47;;;;;;;3.58;3.05;;;;;;;;;;4974625;28;20995;-75
2021/12/28 12:49:26;;;;;;;4.40;3.45;;;;;;;;;;4944459;28;20042;-74
2021/12/28 12:51:51;;;;;;;5.20;3.72;;;;;;;;;;4982899;28;20050;-76
2021/12/28 12:54:25;;;;;;;11.10;5.22;;;;;;;;;;4988580;28;20041;-77
2021/12/28 12:56:50;;;;;;;6.63;4.90;;;;;;;;;;4983398;28;20031;-76
2021/12/28 12:59:18;;;;;;;8.88;5.07;;;;;;;;;;4984016;28;20038;-77
2021/12/28 13:01:44;;;;;;;8.30;5.57;;;;;;;;;;4991041;28;20022;-78
2021/12/28 13:04:25;;;;;;;10.45;5.05;;;;;;;;;;4974836;28;20496;-77
2021/12/28 13:07:08;;;;;;;5.78;5.15;;;;;;;;;;4956730;28;20054;-77
2021/12/28 13:09:37;;;;;;;9.10;5.65;;;;;;;;;;4970946;28;20042;-77
2021/12/28 13:12:08;;;;;;;10.98;4.90;;;;;;;;;;4959070;28;20100;-77
2021/12/28 13:14:35;;;;;;;8.35;5.85;;;;;;;;;;4970485;28;20050;-78
2021/12/28 13:17:03;;;;;;;9.25;5.80;;;;;;;;;;4969182;28;20049;-76
2021/12/28 13:19:29;;;;;;;7.38;5.72;;;;;;;;;;4980770;28;20382;-76
2021/12/28 13:22:08;;;;;;;8.30;5.80;;;;;;;;;;4956288;28;20499;-76
2021/12/28 13:24:43;;;;;;;8.68;5.40;;;;;;;;;;4976723;28;20031;-74
2021/12/28 13:27:10;;;;;;;11.20;5.88;;;;;;;;;;4963712;28;20046;-76
2021/12/28 13:29:39;;;;;;;12.70;6.03;;;;;;;;;;4957273;28;20049;-74
2021/12/28 13:32:10;;;;;;;6.60;5.25;;;;;;;;;;4992868;28;20496;-74
2021/12/28 13:35:04;;;;;;;7.57;5.80;;;;;;;;;;4968689;28;20073;-73
2021/12/28 13:37:29;;;;;;;8.35;5.43;;;;;;;;;;4998258;28;20033;-74
2021/12/28 13:40:00;;;;;;;9.43;5.60;;;;;;;;;;4991960;28;20054;-75
2021/12/28 13:42:25;;;;;;;7.18;5.45;;;;;;;;;;4955574;28;20062;-76
2021/12/28 13:44:51;;;;;;;9.55;5.80;;;;;;;;;;4973165;28;20077;-76
2021/12/28 13:47:19;;;;;;;5.93;4.25;;;;;;;;;;4991105;28;20041;-74
2021/12/28 13:49:59;;;;;;;6.03;4.35;;;;;;;;;;4974586;28;20066;-74
2021/12/28 13:52:25;;;;;;;5.18;4.22;;;;;;;;;;4993028;28;20038;-75
2021/12/28 13:54:50;;;;;;;8.93;4.38;;;;;;;;;;5001877;28;20615;-76
2021/12/28 13:57:16;;;;;;;6.53;5.07;;;;;;;;;;4995119;28;20065;-75
2021/12/28 13:59:41;;;;;;;6.57;4.95;;;;;;;;;;5011686;28;20037;-76
2021/12/28 14:02:07;;;;;;;7.43;5.22;;;;;;;;;;4994964;28;20045;-75
2021/12/28 14:04:34;;;;;;;6.95;5.55;;;;;;;;;;4959991;28;20093;-76
2021/12/28 14:06:59;;;;;;;7.00;4.85;;;;;;;;;;4954696;28;20039;-76
2021/12/28 14:09:27;;;;;;;7.97;5.40;;;;;;;;;;4988642;28;20056;-77
2021/12/28 14:11:55;;;;;;;10.13;4.88;;;;;;;;;;4973234;28;20486;-76
2021/12/28 14:14:21;;;;;;;6.55;5.10;;;;;;;;;;4967220;28;20050;-78
2021/12/28 14:17:05;;;;;;;8.75;5.40;;;;;;;;;;4963738;28;20035;-77
2021/12/28 14:19:32;;;;;;;9.68;5.15;;;;;;;;;;4972425;28;20042;-77
2021/12/28 14:21:59;;;;;;;9.25;5.35;;;;;;;;;;4972304;28;20038;-76
2021/12/28 14:24:30;;;;;;;10.57;5.90;;;;;;;;;;4976073;28;20037;-76
2021/12/28 14:26:56;;;;;;;8.20;6.30;;;;;;;;;;4959097;28;20398;-74
2021/12/28 14:29:24;;;;;;;10.05;6.13;;;;;;;;;;4954098;28;20290;-74
2021/12/28 14:31:55;;;;;;;8.35;5.70;;;;;;;;;;4984742;28;20034;-77
2021/12/28 14:34:42;;;;;;;6.60;5.53;;;;;;;;;;4991854;28;20034;-73
2021/12/28 14:37:20;;;;;;;9.68;6.45;;;;;;;;;;4976782;28;20063;-74